createdAt,value
2022-09-07T00:01:16.587Z,2.60
2022-09-07T00:03:42.893Z,2.00
2022-09-07T00:06:10.202Z,2.30
2022-09-07T00:08:36.976Z,2.40
2022-09-07T00:11:05.087Z,2.35
2022-09-07T00:13:32.798Z,2.65
2022-09-07T00:15:59.246Z,2.85
2022-09-07T00:18:25.627Z,2.65
2022-09-07T00:21:02.247Z,2.85
2022-09-07T00:23:29.814Z,3.10
2022-09-07T00:26:00.494Z,3.35
2022-09-07T00:28:26.946Z,3.33
2022-09-07T00:30:53.243Z,3.28
2022-09-07T00:33:19.531Z,2.78
2022-09-07T00:35:46.348Z,3.75
2022-09-07T00:38:12.660Z,3.88
2022-09-07T00:40:39.315Z,3.65
2022-09-07T00:43:08.230Z,3.65
2022-09-07T00:45:34.499Z,3.35
2022-09-07T00:48:06.431Z,3.58
2022-09-07T00:50:38.306Z,3.17
2022-09-07T00:53:11.382Z,3.63
2022-09-07T00:55:39.863Z,3.78
2022-09-07T00:58:07.847Z,4.17
2022-09-07T01:00:34.467Z,4.18
2022-09-07T01:03:01.916Z,4.20
2022-09-07T01:05:33.923Z,4.25
2022-09-07T01:08:01.574Z,4.20
2022-09-07T01:10:31.791Z,4.25
2022-09-07T01:12:58.798Z,4.45
2022-09-07T01:15:40.716Z,4.10
2022-09-07T01:18:09.452Z,3.92
2022-09-07T01:20:45.257Z,3.92
2022-09-07T01:23:17.678Z,3.78
2022-09-07T01:26:07.542Z,4.05
2022-09-07T01:28:34.938Z,4.10
2022-09-07T01:31:20.335Z,4.38
2022-09-07T01:33:49.414Z,4.07
2022-09-07T01:36:26.978Z,4.30
2022-09-07T01:38:55.083Z,3.88
2022-09-07T01:41:41.228Z,3.72
2022-09-07T01:44:19.948Z,4.43
2022-09-07T01:47:05.169Z,4.47
2022-09-07T01:49:50.119Z,4.40
2022-09-07T01:52:16.496Z,4.07
2022-09-07T01:54:47.171Z,3.47
2022-09-07T01:57:16.408Z,3.85
2022-09-07T01:59:45.404Z,3.90
2022-09-07T02:02:14.634Z,4.10
2022-09-07T02:04:46.915Z,3.70
2022-09-07T02:07:20.855Z,3.58
2022-09-07T02:10:10.298Z,3.20
2022-09-07T02:12:49.876Z,3.33
2022-09-07T02:15:25.476Z,3.08
2022-09-07T02:17:55.933Z,2.90
2022-09-07T02:20:25.062Z,3.10
2022-09-07T02:22:55.327Z,2.90
2022-09-07T02:25:26.624Z,3.05
2022-09-07T02:28:08.851Z,3.17
2022-09-07T02:30:35.184Z,3.70
2022-09-07T02:33:01.549Z,2.97
2022-09-07T02:35:27.987Z,2.80
2022-09-07T02:37:54.736Z,2.65
2022-09-07T02:40:21.018Z,2.83
2022-09-07T02:42:48.136Z,2.78
2022-09-07T02:45:15.240Z,2.45
2022-09-07T02:47:41.483Z,2.70
2022-09-07T02:50:10.922Z,2.45
2022-09-07T02:52:47.047Z,2.40
2022-09-07T02:55:26.972Z,2.40
2022-09-07T02:58:12.442Z,2.40
2022-09-07T03:00:42.900Z,2.45
2022-09-07T03:03:23.193Z,2.58
2022-09-07T03:05:54.876Z,2.88
2022-09-07T03:08:23.944Z,2.35
2022-09-07T03:10:50.633Z,2.45
2022-09-07T03:13:20.990Z,2.35
2022-09-07T03:15:47.311Z,2.33
2022-09-07T03:18:13.602Z,2.60
2022-09-07T03:20:39.846Z,2.65
2022-09-07T03:23:06.118Z,3.03
2022-09-07T03:25:32.403Z,2.30
2022-09-07T03:27:58.662Z,2.40
2022-09-07T03:30:24.921Z,2.38
2022-09-07T03:32:51.319Z,2.38
2022-09-07T03:35:18.068Z,2.40
2022-09-07T03:37:44.365Z,2.35
2022-09-07T03:40:11.870Z,2.40
2022-09-07T03:42:38.265Z,2.40
2022-09-07T03:45:05.138Z,2.33
2022-09-07T03:47:33.296Z,2.70
2022-09-07T03:49:59.551Z,2.65
2022-09-07T03:52:26.096Z,2.70
2022-09-07T03:54:52.361Z,2.38
2022-09-07T03:57:20.242Z,2.97
2022-09-07T03:59:46.888Z,2.55
2022-09-07T04:02:13.988Z,2.50
2022-09-07T04:04:41.519Z,2.85
2022-09-07T04:07:08.153Z,2.85
2022-09-07T04:09:34.405Z,2.72
2022-09-07T04:12:00.767Z,2.72
2022-09-07T04:14:27.018Z,3.25
2022-09-07T04:16:53.290Z,3.10
2022-09-07T04:19:19.593Z,2.97
2022-09-07T04:21:46.638Z,2.97
2022-09-07T04:24:13.652Z,3.22
2022-09-07T04:26:39.929Z,3.03
2022-09-07T04:29:06.845Z,2.95
2022-09-07T04:31:33.607Z,3.28
2022-09-07T04:33:59.868Z,3.55
2022-09-07T04:36:26.206Z,3.70
2022-09-07T04:38:59.996Z,3.92
2022-09-07T04:41:27.343Z,3.60
2022-09-07T04:43:56.805Z,3.97
2022-09-07T04:46:24.427Z,3.75
2022-09-07T04:48:51.685Z,4.10
2022-09-07T04:51:18.362Z,4.28
2022-09-07T04:53:47.247Z,3.92
2022-09-07T04:56:16.890Z,4.10
2022-09-07T04:58:43.612Z,4.33
2022-09-07T05:01:10.019Z,4.20
2022-09-07T05:03:37.434Z,4.28
2022-09-07T05:06:04.760Z,4.65
2022-09-07T05:08:31.141Z,4.20
2022-09-07T05:10:57.707Z,4.50
2022-09-07T05:13:24.046Z,4.57
2022-09-07T05:15:50.322Z,4.50
2022-09-07T05:18:16.606Z,4.50
2022-09-07T05:20:42.866Z,4.15
2022-09-07T05:23:09.143Z,4.00
2022-09-07T05:25:42.100Z,3.75
2022-09-07T05:28:08.416Z,4.05
2022-09-07T05:33:21.121Z,4.95
2022-09-07T05:35:55.806Z,4.40
2022-09-07T05:38:22.057Z,4.28
2022-09-07T05:40:48.314Z,4.55
2022-09-07T05:43:14.572Z,4.50
2022-09-07T05:45:40.853Z,4.30
2022-09-07T05:48:07.165Z,4.57
2022-09-07T05:50:33.442Z,4.50
2022-09-07T05:52:59.725Z,4.82
2022-09-07T05:55:30.639Z,4.50
2022-09-07T05:57:57.139Z,5.00
2022-09-07T06:00:24.190Z,4.68
2022-09-07T06:02:50.540Z,4.60
2022-09-07T06:05:17.523Z,4.82
2022-09-07T06:07:47.520Z,4.95
2022-09-07T06:13:00.343Z,5.20
2022-09-07T06:15:26.608Z,4.95
2022-09-07T06:17:53.797Z,5.38
2022-09-07T06:20:20.106Z,5.43
2022-09-07T06:22:46.367Z,5.43
2022-09-07T06:25:12.739Z,5.75
2022-09-07T06:27:39.036Z,5.72
2022-09-07T06:30:05.479Z,5.43
2022-09-07T06:32:47.107Z,5.78
2022-09-07T06:35:14.641Z,6.13
2022-09-07T06:37:41.106Z,6.45
2022-09-07T06:40:08.289Z,6.63
2022-09-07T06:42:34.651Z,6.15
2022-09-07T06:45:00.957Z,6.80
2022-09-07T06:47:27.239Z,7.20
2022-09-07T06:49:53.542Z,7.50
2022-09-07T06:52:19.987Z,8.23
2022-09-07T06:55:01.839Z,8.38
2022-09-07T06:57:28.276Z,8.60
2022-09-07T06:59:54.577Z,8.70
2022-09-07T07:02:20.842Z,8.60
2022-09-07T07:04:47.166Z,8.63
2022-09-07T07:07:13.907Z,9.40
2022-09-07T07:09:40.915Z,9.95
2022-09-07T07:12:07.308Z,9.82
2022-09-07T07:14:35.499Z,10.35
2022-09-07T07:17:02.651Z,9.90
2022-09-07T07:19:29.044Z,10.02
2022-09-07T07:22:14.483Z,9.68
2022-09-07T07:24:41.540Z,10.02
2022-09-07T07:27:07.813Z,10.30
2022-09-07T07:29:34.172Z,11.02
2022-09-07T07:32:00.741Z,11.65
2022-09-07T07:34:45.525Z,10.88
2022-09-07T07:37:11.790Z,10.98
2022-09-07T07:42:24.262Z,10.70
2022-09-07T07:47:36.808Z,10.85
2022-09-07T07:52:50.479Z,8.63
2022-09-07T07:58:03.311Z,8.52
2022-09-07T08:00:50.725Z,9.23
2022-09-07T08:03:15.741Z,10.75
2022-09-07T08:05:41.954Z,10.18
2022-09-07T08:08:08.172Z,11.23
2022-09-07T08:10:35.486Z,10.23
2022-09-07T08:13:01.774Z,10.85
2022-09-07T08:15:28.169Z,10.55
2022-09-07T08:17:56.644Z,11.43
2022-09-07T08:20:23.136Z,11.32
2022-09-07T08:22:49.717Z,12.98
2022-09-07T08:28:09.234Z,13.82
2022-09-07T08:30:38.640Z,14.45
2022-09-07T08:33:04.920Z,13.90
2022-09-07T08:35:31.149Z,13.35
2022-09-07T08:37:57.426Z,14.98
2022-09-07T08:40:23.659Z,12.82
2022-09-07T08:43:00.435Z,15.23
2022-09-07T08:45:50.076Z,14.20
2022-09-07T08:48:18.707Z,14.47
2022-09-07T08:50:57.358Z,13.98
2022-09-07T08:53:25.028Z,11.10
2022-09-07T08:55:55.056Z,14.25
2022-09-07T08:58:50.403Z,13.05
2022-09-07T09:01:32.463Z,13.07
2022-09-07T09:06:11.563Z,14.15
2022-09-07T09:06:48.623Z,13.45
2022-09-07T09:09:17.679Z,12.48
2022-09-07T09:11:44.415Z,12.80
2022-09-07T09:14:16.601Z,13.40
2022-09-07T09:16:45.728Z,13.20
2022-09-07T09:19:27.206Z,12.68
2022-09-07T09:22:10.668Z,12.60
2022-09-07T09:24:38.304Z,12.27
2022-09-07T09:27:04.654Z,12.15
2022-09-07T09:29:30.892Z,11.93
2022-09-07T09:31:57.145Z,11.20
2022-09-07T09:34:25.534Z,11.73
2022-09-07T09:36:55.296Z,11.30
2022-09-07T09:39:26.267Z,11.85
2022-09-07T09:41:55.059Z,11.00
2022-09-07T09:44:21.532Z,10.75
2022-09-07T09:47:29.206Z,10.13
2022-09-07T09:49:36.094Z,9.57
2022-09-07T09:55:03.420Z,8.82
2022-09-07T10:01:20.490Z,8.55
2022-09-07T10:06:14.569Z,8.40
2022-09-07T10:08:51.443Z,8.15
2022-09-07T10:11:17.696Z,8.73
2022-09-07T10:13:54.813Z,7.80
2022-09-07T10:16:34.134Z,8.43
2022-09-07T10:19:00.882Z,7.93
2022-09-07T10:21:28.253Z,8.82
2022-09-07T10:23:54.491Z,8.38
2022-09-07T10:26:25.474Z,8.85
2022-09-07T10:29:07.308Z,7.53
2022-09-07T10:31:36.962Z,6.45
2022-09-07T10:34:26.141Z,5.82
2022-09-07T10:37:03.373Z,5.30
2022-09-07T10:39:34.422Z,5.22
2022-09-07T10:42:00.707Z,4.45
2022-09-07T10:44:29.762Z,4.35
2022-09-07T10:46:59.471Z,5.00
2022-09-07T10:49:27.379Z,4.60
2022-09-07T10:52:03.583Z,5.05
2022-09-07T10:54:42.155Z,4.43
2022-09-07T10:57:27.296Z,5.20
2022-09-07T11:00:11.677Z,4.97
2022-09-07T11:05:49.215Z,3.25
2022-09-07T11:08:15.530Z,2.75
2022-09-07T11:11:17.586Z,3.50
2022-09-07T11:14:09.333Z,3.20
2022-09-07T11:16:53.425Z,3.00
2022-09-07T11:19:38.080Z,2.38
2022-09-07T11:22:24.971Z,2.70
2022-09-07T11:27:47.824Z,2.42
2022-09-07T11:30:21.896Z,2.70
2022-09-07T11:33:12.360Z,2.55
2022-09-07T11:35:41.482Z,2.60
2022-09-07T11:38:21.195Z,2.42
2022-09-07T11:41:05.883Z,2.40
2022-09-07T11:43:34.983Z,2.00
2022-09-07T11:46:07.626Z,2.25
2022-09-07T11:48:39.929Z,2.30
2022-09-07T11:51:13.144Z,2.78
2022-09-07T11:53:43.491Z,1.80
2022-09-07T11:56:20.380Z,2.40
2022-09-07T11:58:47.598Z,2.13
2022-09-07T12:01:13.796Z,2.50
2022-09-07T12:03:58.715Z,2.60
2022-09-07T12:06:30.947Z,2.85
2022-09-07T12:09:15.571Z,2.40
2022-09-07T12:11:47.786Z,2.33
2022-09-07T12:14:21.969Z,2.75
2022-09-07T12:16:50.990Z,2.20
2022-09-07T12:19:18.978Z,2.70
2022-09-07T12:21:47.420Z,2.20
2022-09-07T12:24:32.362Z,2.67
2022-09-07T12:27:02.424Z,2.55
2022-09-07T12:29:29.537Z,2.63
2022-09-07T12:31:58.295Z,2.60
2022-09-07T12:34:31.438Z,2.15
2022-09-07T12:37:01.979Z,2.42
2022-09-07T12:39:37.311Z,2.15
2022-09-07T12:45:11.617Z,2.20
2022-09-07T12:47:38.335Z,2.47
2022-09-07T12:50:16.523Z,2.00
2022-09-07T12:52:42.771Z,2.28
2022-09-07T12:55:27.907Z,2.20
2022-09-07T12:58:07.539Z,1.70
2022-09-07T13:00:47.682Z,1.50
2022-09-07T13:04:01.937Z,1.90
2022-09-07T13:09:29.838Z,1.40
2022-09-07T13:11:57.135Z,1.80
2022-09-07T13:14:29.536Z,1.63
2022-09-07T13:17:17.524Z,1.63
2022-09-07T13:19:46.552Z,1.38
2022-09-07T13:22:31.106Z,1.40
2022-09-07T13:24:59.630Z,1.35
2022-09-07T13:27:32.842Z,1.30
2022-09-07T13:30:04.943Z,1.67
2022-09-07T13:35:18.331Z,1.38
2022-09-07T13:38:01.005Z,1.30
2022-09-07T13:40:29.866Z,1.20
2022-09-07T13:42:56.792Z,0.82
2022-09-07T13:45:28.107Z,0.90
2022-09-07T13:47:57.352Z,0.90
2022-09-07T13:50:31.228Z,0.93
2022-09-07T13:53:16.308Z,1.00
2022-09-07T13:56:05.875Z,0.85
2022-09-07T13:58:36.245Z,0.98
2022-09-07T14:01:05.204Z,1.15
2022-09-07T14:03:36.716Z,1.00
2022-09-07T14:06:21.027Z,0.98
2022-09-07T14:08:51.639Z,1.40
2022-09-07T14:11:19.680Z,1.10
2022-09-07T14:13:45.942Z,0.90
2022-09-07T14:16:12.243Z,1.10
2022-09-07T14:18:39.353Z,1.00
2022-09-07T14:21:09.027Z,0.90
2022-09-07T14:23:36.584Z,2.00
2022-09-07T14:26:17.230Z,1.08
2022-09-07T14:28:45.885Z,0.90
2022-09-07T14:31:14.257Z,0.90
2022-09-07T14:33:46.604Z,0.98
2022-09-07T14:36:39.445Z,1.05
2022-09-07T14:39:07.489Z,0.90
2022-09-07T14:41:38.281Z,1.00
2022-09-07T14:44:04.595Z,1.20
2022-09-07T14:46:33.979Z,1.08
2022-09-07T14:49:02.681Z,1.40
2022-09-07T14:51:36.114Z,1.30
2022-09-07T14:54:04.355Z,1.38
2022-09-07T14:56:32.725Z,1.10
2022-09-07T14:58:59.247Z,1.10
2022-09-07T15:01:41.738Z,1.35
2022-09-07T15:04:16.619Z,1.02
2022-09-07T15:09:37.046Z,1.20
2022-09-07T15:12:04.598Z,0.88
2022-09-07T15:14:31.154Z,1.23
2022-09-07T15:19:50.111Z,1.00
2022-09-07T15:22:17.362Z,1.02
2022-09-07T15:24:46.345Z,1.08
2022-09-07T15:27:28.620Z,1.08
2022-09-07T15:29:54.879Z,1.13
2022-09-07T15:32:21.157Z,1.20
2022-09-07T15:34:47.395Z,1.23
2022-09-07T15:40:01.485Z,1.15
2022-09-07T15:45:14.301Z,1.00
2022-09-07T15:47:50.415Z,1.08
2022-09-07T15:50:18.124Z,1.02
2022-09-07T15:52:46.555Z,0.80
2022-09-07T15:55:13.079Z,1.17
2022-09-07T15:58:05.525Z,1.10
2022-09-07T16:00:25.523Z,1.23
2022-09-07T16:03:08.509Z,1.00
2022-09-07T16:05:35.245Z,1.10
2022-09-07T16:11:04.445Z,0.90
2022-09-07T16:13:31.722Z,1.90
2022-09-07T16:15:59.795Z,1.40
2022-09-07T16:18:26.959Z,1.05
2022-09-07T16:20:57.241Z,1.10
2022-09-07T16:23:23.523Z,1.00
2022-09-07T16:25:57.583Z,1.08
2022-09-07T16:28:23.830Z,1.10
2022-09-07T16:30:50.064Z,1.85
2022-09-07T16:33:16.439Z,1.30
2022-09-07T16:35:42.821Z,1.15
2022-09-07T16:40:55.292Z,0.93
2022-09-07T16:43:21.503Z,1.10
2022-09-07T16:46:03.298Z,1.17
2022-09-07T16:48:31.097Z,0.80
2022-09-07T16:51:02.023Z,1.00
2022-09-07T16:53:29.923Z,1.10
2022-09-07T16:56:07.406Z,1.00
2022-09-07T16:58:35.719Z,1.02
2022-09-07T17:01:02.742Z,1.30
2022-09-07T17:03:29.537Z,0.90
2022-09-07T17:05:55.944Z,1.08
2022-09-07T17:08:22.264Z,0.85
2022-09-07T17:10:48.530Z,1.55
2022-09-07T17:13:14.732Z,1.00
2022-09-07T17:15:40.962Z,1.75
2022-09-07T17:18:07.185Z,0.90
2022-09-07T17:20:33.397Z,1.00
2022-09-07T17:23:00.963Z,1.20
2022-09-07T17:25:28.283Z,1.08
2022-09-07T17:27:54.500Z,1.23
2022-09-07T17:30:20.925Z,0.93
2022-09-07T17:32:47.884Z,1.25
2022-09-07T17:35:14.176Z,1.10
2022-09-07T17:37:40.401Z,1.10
2022-09-07T17:40:07.139Z,1.17
2022-09-07T17:45:19.648Z,1.20
2022-09-07T17:47:45.868Z,1.25
2022-09-07T17:50:12.097Z,1.15
2022-09-07T17:52:40.446Z,0.90
2022-09-07T17:55:11.893Z,0.82
2022-09-07T17:57:38.117Z,1.25
2022-09-07T18:00:11.193Z,1.00
2022-09-07T18:02:38.004Z,1.10
2022-09-07T18:05:04.916Z,1.17
2022-09-07T18:07:32.255Z,1.00
2022-09-07T18:09:59.216Z,1.05
2022-09-07T18:12:25.660Z,1.42
2022-09-07T18:14:51.872Z,1.45
2022-09-07T18:17:18.312Z,1.60
2022-09-07T18:19:44.641Z,1.35
2022-09-07T18:22:10.851Z,1.00
2022-09-07T18:24:37.253Z,1.15
2022-09-07T18:27:04.130Z,1.10
2022-09-07T18:29:33.569Z,1.33
2022-09-07T18:32:02.263Z,1.52
2022-09-07T18:34:28.910Z,1.30
2022-09-07T18:36:55.349Z,1.30
2022-09-07T18:39:21.653Z,1.25
2022-09-07T18:41:48.013Z,1.50
2022-09-07T18:47:00.565Z,1.30
2022-09-07T18:49:26.791Z,1.40
2022-09-07T18:54:39.485Z,1.52
2022-09-07T18:57:06.919Z,1.80
2022-09-07T18:59:33.904Z,1.70
2022-09-07T19:02:04.517Z,1.67
2022-09-07T19:07:20.251Z,2.10
2022-09-07T19:09:47.940Z,2.10
2022-09-07T19:12:14.186Z,2.10
2022-09-07T19:14:42.008Z,2.67
2022-09-07T19:17:10.723Z,2.58
2022-09-07T19:19:37.286Z,2.35
2022-09-07T19:22:03.608Z,2.38
2022-09-07T19:24:29.887Z,2.35
2022-09-07T19:27:00.241Z,2.30
2022-09-07T19:29:27.048Z,3.15
2022-09-07T19:32:06.774Z,2.47
2022-09-07T19:34:34.616Z,3.83
2022-09-07T19:37:01.298Z,3.67
2022-09-07T19:39:27.603Z,3.85
2022-09-07T19:41:53.880Z,2.85
2022-09-07T19:44:20.127Z,3.20
2022-09-07T19:46:46.458Z,2.53
2022-09-07T19:49:13.169Z,2.95
2022-09-07T19:51:40.081Z,2.90
2022-09-07T19:54:06.871Z,3.30
2022-09-07T19:56:33.083Z,4.03
2022-09-07T19:58:59.343Z,3.63
2022-09-07T20:01:25.703Z,3.30
2022-09-07T20:03:56.478Z,2.88
2022-09-07T20:06:22.833Z,2.80
2022-09-07T20:08:49.054Z,3.05
2022-09-07T20:11:15.803Z,2.63
2022-09-07T20:13:42.231Z,3.25
2022-09-07T20:16:10.449Z,3.05
2022-09-07T20:18:37.794Z,3.05
2022-09-07T20:21:04.971Z,2.95
2022-09-07T20:23:31.290Z,3.22
2022-09-07T20:26:01.603Z,3.42
2022-09-07T20:28:28.995Z,2.92
2022-09-07T20:30:55.511Z,2.78
2022-09-07T20:33:22.280Z,2.78
2022-09-07T20:35:48.774Z,3.03
2022-09-07T20:38:15.880Z,3.13
2022-09-07T20:40:55.579Z,3.00
2022-09-07T20:43:22.040Z,3.60
2022-09-07T20:45:48.387Z,3.38
2022-09-07T20:48:14.941Z,3.60
2022-09-07T20:50:41.206Z,3.30
2022-09-07T20:53:07.771Z,3.00
2022-09-07T20:55:35.865Z,3.67
2022-09-07T20:58:02.395Z,3.72
2022-09-07T21:00:28.796Z,3.92
2022-09-07T21:02:56.068Z,3.97
2022-09-07T21:05:22.345Z,3.58
2022-09-07T21:07:48.555Z,3.75
2022-09-07T21:10:14.771Z,3.30
2022-09-07T21:12:41.014Z,3.50
2022-09-07T21:15:07.865Z,4.15
2022-09-07T21:17:34.175Z,3.88
2022-09-07T21:20:00.401Z,3.60
2022-09-07T21:22:26.613Z,3.03
2022-09-07T21:24:52.827Z,3.17
2022-09-07T21:27:19.057Z,3.38
2022-09-07T21:29:45.265Z,3.50
2022-09-07T21:32:11.496Z,3.67
2022-09-07T21:34:37.799Z,3.58
2022-09-07T21:37:04.086Z,3.40
2022-09-07T21:39:30.352Z,3.47
2022-09-07T21:41:56.625Z,3.38
2022-09-07T21:44:23.525Z,3.15
2022-09-07T21:46:49.800Z,3.15
2022-09-07T21:49:16.046Z,3.13
2022-09-07T21:51:42.250Z,3.30
2022-09-07T21:54:08.511Z,3.40
2022-09-07T21:56:34.815Z,3.53
2022-09-07T21:59:02.088Z,3.75
2022-09-07T22:01:29.515Z,3.47
2022-09-07T22:03:56.892Z,4.07
2022-09-07T22:06:23.723Z,3.65
2022-09-07T22:08:50.172Z,3.72
2022-09-07T22:11:17.976Z,3.63
2022-09-07T22:13:44.445Z,3.58
2022-09-07T22:16:11.316Z,4.05
2022-09-07T22:18:38.288Z,3.50
2022-09-07T22:21:04.474Z,3.60
2022-09-07T22:23:31.566Z,4.00
2022-09-07T22:25:57.890Z,3.88
2022-09-07T22:28:24.100Z,3.60
2022-09-07T22:30:50.473Z,3.47
2022-09-07T22:33:16.691Z,3.80
2022-09-07T22:35:42.892Z,3.90
2022-09-07T22:38:09.127Z,3.72
2022-09-07T22:40:35.376Z,3.40
2022-09-07T22:43:01.591Z,3.85
2022-09-07T22:45:27.808Z,3.30
2022-09-07T22:47:54.014Z,3.50
2022-09-07T22:50:20.305Z,2.80
2022-09-07T22:52:46.726Z,2.60
2022-09-07T22:55:13.130Z,2.30
2022-09-07T22:57:39.388Z,2.42
2022-09-07T23:00:06.172Z,2.30
2022-09-07T23:02:32.493Z,2.28
2022-09-07T23:04:58.743Z,2.58
2022-09-07T23:07:24.976Z,2.65
2022-09-07T23:09:51.196Z,2.20
2022-09-07T23:12:17.399Z,2.67
2022-09-07T23:14:43.605Z,2.22
2022-09-07T23:17:09.813Z,2.33
2022-09-07T23:19:36.412Z,2.50
2022-09-07T23:22:02.623Z,2.47
2022-09-07T23:24:28.829Z,2.80
2022-09-07T23:26:55.037Z,2.67
2022-09-07T23:29:21.282Z,3.08
2022-09-07T23:31:48.022Z,2.92
2022-09-07T23:34:14.361Z,2.90
2022-09-07T23:36:40.605Z,3.70
2022-09-07T23:39:07.210Z,3.13
2022-09-07T23:41:33.439Z,3.20
2022-09-07T23:44:00.389Z,3.58
2022-09-07T23:46:26.690Z,2.90
2022-09-07T23:48:53.000Z,3.55
2022-09-07T23:51:23.876Z,3.60
2022-09-07T23:53:50.886Z,4.25
2022-09-07T23:56:17.139Z,4.10
2022-09-07T23:58:43.415Z,3.92
